Airfield :
LOGIN :

Register | Disclaimer

   EN    FR    IT 

 










Legend :    VFR   Marginal VFR   IFR   Intensive IFR   Very Intensive IFR
Visi :
Ceiling :
>= 8 km
>= 3000ft
5 to 8 km
1000 to 3000 ft
1500m to 5 km
500 to 1000 ft
800 to 1500m
200 to 500 ft
< 800m
< 200 ft
Symbols :   Thunderstorms  Fog  Heavy snow  Heavy precipitations  Wind > 20 kt
SIGMETs :     Misc.  Thunderstorms  Icing  Turbulence  Mountain Waves  Volcanic Ashes







- Airport Elevation : 1966 ft
- IATA code : SGE


EDGS - Siegerland

CURRENT METAR :
  • 201620Z 15005KT 3000 -SN BR OVC002 M01/M01 Q0997

EXPIRED METARs :
  • 201550Z 16006KT 2000 -SN BR OVC003 M01/M01 Q0998
  • 201520Z 15006KT 2000 -SN BR OVC003 M00/M01 Q0998
  • 201450Z 16007KT 1800 -SN BR OVC003 M00/M01 Q0999
  • 201420Z 16006KT 2400 -SN BR OVC003 M00/M01 Q0999
  • 201350Z 16007KT 2000 -SN BR OVC003 M00/M01 Q1000

TAF TAF EDGS
Valid from the 20 at 15:00 until the 21 at 00:00 UTC


201400Z 2015/2024 17007KT 2000 -SN SCT002 OVC004
TEMPO 2015/2021 0300 SN VV000
No reported NOTAMs for that airfield.
1 SIGMET reported for the Langen FIR (EDGG) :
 
Severe icing
EDGG SIGMET 2 VALID 201400/201800 EDZF
EDGG LANGEN FIR SEV ICE FCST WI N5206 E00755 - N5121 E01028 - N5015 E01016 - N4904 E00756 - N4906 E00756 - N4937 E00622 - N5153 E00608 - N5206 E00755 2000FT/FL160 MOV NE NC=



MET'MAP, your aeronautical weather chart ! - Copyright ORBIFLY December 2007 - Disclaimer

ORBIFLY MET'MAP TEAM :

Programming & Development : Alexandra Zaïnal
Concept & Development : Baudouin d'Aumeries
Co-Development & Prog : Marc-Olivier Méhu
Technical & hardware support : Manuel Goepfert

Contact : metmap@orbifly.com




SOURCES & CREDITS :

   NOAA